Detall de PIREP

Printer-friendly versionPDF version

[2012/03/04 17:20:00]
Flight IATA:CT2300
Pilot Number:042
Company ICAO:CAT
Aircraft Type:B738/F
PAX:150
Departing Airport: LIEA
Destination Airport: LIBD
Alternate Airport:LIRN
Online: VATSIM
Route:KOLUS UM603 VEGAN UP748 TOPNO
Flight Level:F330
No Slew and time accel
No pause
Crash detect
Detect pilot in Cockpit between each 30 and 45 minutes
17:20 Zero fuel Weight: 91301 Lbs, Fuel Weight: 46036 Lbs
17:20 VATSIM:LIEA 041650Z 20006KT 9999 SCT025 12/10 Q1019
17:20 VATSIM:LIBD 041650Z 11004KT 070V150 4000 BR BKN010 12/10 Q1017
17:20 VOICE CATALONIAN
17:26 Parking Brakes off
17:30 Take-off
17:30 Take off Weight: 136766 Lbs
17:30 Wind: 200º @ 006 Knots Heading: 203º
17:30 POS N40º 37´ 44´´ E008º 17´ 20´´
17:30 Flaps:5 at 168 Knots
17:30 Gear Up: 168 Knots
17:30 Flaps:4 at 176 Knots
17:30 Flaps:3 at 174 Knots
17:32 Flaps:2 at 195 Knots
17:33 Flaps:1 at 246 Knots
17:33 Flaps:0 at 246 Knots
17:45 Wind:210º@003 Knots Heading: 085º Ground Speed: 451 Knots Altitude 32985 ft
17:45 TOC
17:45 Fuel Weight: 42178 Lb
18:00 Wind:225º@010 Knots Heading: 087º Ground Speed: 456 Knots Altitude 33126 ft
18:12 TOD
18:12 Fuel Weight: 39570 Lb
18:15 Wind:117º@000 Knots Heading: 088º Ground Speed: 400 Knots Altitude 28720 ft
18:29 Flaps:1 at 230 Knots
18:29 Flaps:2 at 225 Knots
18:30 Wind:154º@004 Knots Heading: 069º Ground Speed: 210 Knots Altitude 3930 ft
18:30 Flaps:3 at 195 Knots
18:30 Flaps:4 at 165 Knots
18:33 Gear Down: 165 Knots
18:33 Flaps:6 at 164 Knots
18:33 Flaps:7 at 158 Knots
18:33 Flaps:8 at 150 Knots
18:36 TouchDown:Rate -515 ft/min Speed: 130 Knots
18:37 VATSIM:LIBD 041750Z 15003KT 4000 BR SCT010 11/09 Q1017
18:37 Land
18:37 Wind:149º@003 Knots
18:37 Heading: 068º
18:37 Flight Duration: 01:07
18:37 Landing Weight: 129734 Lbs
18:37 POS N41º 08´ 16´´ E016º 45´ 28´´
18:39 Parking brakes on
18:39 Block to Block Duration: 01:13
18:39 Final Fuel: 38258 Lbls
18:39 Spent Fuel: 7777 Lbls
18:39 Flight Length: 409 NM
18:39 TOD Land Length: 115 NM

Exportar CSV

Powered by Drupal - Modified by Danger4k